sensor_id;sensor_type;location;lat;lon;timestamp;temperature;humidity
9095;DHT22;4583;49.796;9.902;2023-06-14T00:49:56;18.10;53.80
9095;DHT22;4583;49.796;9.902;2023-06-14T01:20:32;18.10;54.50
9095;DHT22;4583;49.796;9.902;2023-06-14T01:30:34;17.50;54.00
9095;DHT22;4583;49.796;9.902;2023-06-14T02:10:45;18.00;54.30
9095;DHT22;4583;49.796;9.902;2023-06-14T02:30:49;17.90;54.30
9095;DHT22;4583;49.796;9.902;2023-06-14T05:52:46;19.60;52.60
9095;DHT22;4583;49.796;9.902;2023-06-14T06:12:51;19.60;52.40
9095;DHT22;4583;49.796;9.902;2023-06-14T06:22:53;19.70;53.00
9095;DHT22;4583;49.796;9.902;2023-06-14T06:32:55;19.90;52.50
9095;DHT22;4583;49.796;9.902;2023-06-14T06:42:57;20.10;52.40
9095;DHT22;4583;49.796;9.902;2023-06-14T06:52:59;20.10;52.80
9095;DHT22;4583;49.796;9.902;2023-06-14T07:03:01;20.40;52.60
9095;DHT22;4583;49.796;9.902;2023-06-14T07:13:05;20.70;51.60
9095;DHT22;4583;49.796;9.902;2023-06-14T07:23:10;20.70;52.10
9095;DHT22;4583;49.796;9.902;2023-06-14T07:33:12;20.90;51.80
9095;DHT22;4583;49.796;9.902;2023-06-14T07:43:15;21.10;51.40
9095;DHT22;4583;49.796;9.902;2023-06-14T07:53:17;21.30;51.20
9095;DHT22;4583;49.796;9.902;2023-06-14T08:03:18;21.50;49.90
9095;DHT22;4583;49.796;9.902;2023-06-14T08:13:21;21.50;50.40
9095;DHT22;4583;49.796;9.902;2023-06-14T08:23:23;21.70;49.50
9095;DHT22;4583;49.796;9.902;2023-06-14T08:33:25;21.80;49.80
9095;DHT22;4583;49.796;9.902;2023-06-14T08:43:27;22.00;49.50
9095;DHT22;4583;49.796;9.902;2023-06-14T08:53:31;22.10;49.40
9095;DHT22;4583;49.796;9.902;2023-06-14T09:03:43;22.30;49.20
9095;DHT22;4583;49.796;9.902;2023-06-14T09:13:46;22.60;48.80
9095;DHT22;4583;49.796;9.902;2023-06-14T09:23:48;22.60;48.30
9095;DHT22;4583;49.796;9.902;2023-06-14T09:33:50;22.50;47.70
9095;DHT22;4583;49.796;9.902;2023-06-14T09:43:52;22.40;47.20
9095;DHT22;4583;49.796;9.902;2023-06-14T09:54:00;22.40;47.10
9095;DHT22;4583;49.796;9.902;2023-06-14T10:04:13;22.60;46.30
9095;DHT22;4583;49.796;9.902;2023-06-14T10:14:16;23.10;45.60
9095;DHT22;4583;49.796;9.902;2023-06-14T10:24:20;23.30;45.00
9095;DHT22;4583;49.796;9.902;2023-06-14T10:34:28;24.00;44.40
9095;DHT22;4583;49.796;9.902;2023-06-14T10:44:31;24.00;43.50
9095;DHT22;4583;49.796;9.902;2023-06-14T10:54:32;24.00;43.20
9095;DHT22;4583;49.796;9.902;2023-06-14T11:04:50;24.50;43.00
9095;DHT22;4583;49.796;9.902;2023-06-14T11:14:55;24.60;42.70
9095;DHT22;4583;49.796;9.902;2023-06-14T11:24:56;24.10;42.50
9095;DHT22;4583;49.796;9.902;2023-06-14T11:34:59;24.40;42.10
9095;DHT22;4583;49.796;9.902;2023-06-14T11:45:02;24.80;41.20
9095;DHT22;4583;49.796;9.902;2023-06-14T11:55:16;24.60;40.90
9095;DHT22;4583;49.796;9.902;2023-06-14T12:05:21;24.70;40.60
9095;DHT22;4583;49.796;9.902;2023-06-14T12:15:23;25.10;40.00
9095;DHT22;4583;49.796;9.902;2023-06-14T12:25:32;25.50;38.90
9095;DHT22;4583;49.796;9.902;2023-06-14T12:35:35;25.60;38.80
9095;DHT22;4583;49.796;9.902;2023-06-14T12:45:37;25.80;38.40
9095;DHT22;4583;49.796;9.902;2023-06-14T12:55:39;25.80;38.20
9095;DHT22;4583;49.796;9.902;2023-06-14T13:05:40;25.80;37.70
9095;DHT22;4583;49.796;9.902;2023-06-14T13:15:43;25.80;37.50
9095;DHT22;4583;49.796;9.902;2023-06-14T13:25:47;26.00;37.20
9095;DHT22;4583;49.796;9.902;2023-06-14T13:35:51;26.10;37.30
9095;DHT22;4583;49.796;9.902;2023-06-14T13:45:54;26.00;37.30
9095;DHT22;4583;49.796;9.902;2023-06-14T13:55:56;26.40;36.50
9095;DHT22;4583;49.796;9.902;2023-06-14T14:05:58;26.70;36.00
9095;DHT22;4583;49.796;9.902;2023-06-14T14:15:59;26.70;35.80
9095;DHT22;4583;49.796;9.902;2023-06-14T14:26:01;26.40;35.80
9095;DHT22;4583;49.796;9.902;2023-06-14T14:36:05;26.60;36.50
9095;DHT22;4583;49.796;9.902;2023-06-14T14:46:08;27.60;35.00
9095;DHT22;4583;49.796;9.902;2023-06-14T14:56:10;27.30;34.60
9095;DHT22;4583;49.796;9.902;2023-06-14T15:06:13;28.80;33.30
9095;DHT22;4583;49.796;9.902;2023-06-14T15:16:15;28.90;32.50
9095;DHT22;4583;49.796;9.902;2023-06-14T15:26:16;27.50;33.60
9095;DHT22;4583;49.796;9.902;2023-06-14T15:36:18;26.90;34.00
9095;DHT22;4583;49.796;9.902;2023-06-14T15:46:21;27.80;33.70
9095;DHT22;4583;49.796;9.902;2023-06-14T15:56:25;27.30;33.80
9095;DHT22;4583;49.796;9.902;2023-06-14T16:06:27;26.80;34.60
9095;DHT22;4583;49.796;9.902;2023-06-14T16:16:29;29.80;33.00
9095;DHT22;4583;49.796;9.902;2023-06-14T16:26:31;31.40;31.10
9095;DHT22;4583;49.796;9.902;2023-06-14T16:36:32;32.70;29.70
9095;DHT22;4583;49.796;9.902;2023-06-14T16:46:34;30.60;30.90
9095;DHT22;4583;49.796;9.902;2023-06-14T16:56:36;30.60;31.30
9095;DHT22;4583;49.796;9.902;2023-06-14T17:06:38;30.50;31.00
9095;DHT22;4583;49.796;9.902;2023-06-14T17:16:40;32.00;30.00
9095;DHT22;4583;49.796;9.902;2023-06-14T17:26:42;37.00;27.00
9095;DHT22;4583;49.796;9.902;2023-06-14T17:36:44;36.70;26.70
9095;DHT22;4583;49.796;9.902;2023-06-14T17:46:45;41.00;24.70
9095;DHT22;4583;49.796;9.902;2023-06-14T17:56:48;41.70;24.00
9095;DHT22;4583;49.796;9.902;2023-06-14T18:06:50;38.70;25.10
9095;DHT22;4583;49.796;9.902;2023-06-14T18:16:52;34.40;27.40
9095;DHT22;4583;49.796;9.902;2023-06-14T18:26:54;30.00;30.40
9095;DHT22;4583;49.796;9.902;2023-06-14T18:36:56;27.80;32.90
9095;DHT22;4583;49.796;9.902;2023-06-14T18:46:59;26.50;34.70
9095;DHT22;4583;49.796;9.902;2023-06-14T18:57:01;25.60;36.70
9095;DHT22;4583;49.796;9.902;2023-06-14T19:07:03;25.00;38.20
9095;DHT22;4583;49.796;9.902;2023-06-14T19:17:07;24.50;39.60
9095;DHT22;4583;49.796;9.902;2023-06-14T19:27:09;24.00;40.60
9095;DHT22;4583;49.796;9.902;2023-06-14T19:37:12;23.60;41.70
9095;DHT22;4583;49.796;9.902;2023-06-14T19:47:15;23.10;42.50
9095;DHT22;4583;49.796;9.902;2023-06-14T19:57:17;22.80;43.10
9095;DHT22;4583;49.796;9.902;2023-06-14T20:07:19;22.60;43.40
9095;DHT22;4583;49.796;9.902;2023-06-14T20:17:20;22.20;43.10
9095;DHT22;4583;49.796;9.902;2023-06-14T20:27:22;22.00;43.40
9095;DHT22;4583;49.796;9.902;2023-06-14T20:37:24;22.00;44.10
9095;DHT22;4583;49.796;9.902;2023-06-14T20:47:26;21.90;43.70
9095;DHT22;4583;49.796;9.902;2023-06-14T20:57:28;21.80;43.70
9095;DHT22;4583;49.796;9.902;2023-06-14T21:07:29;21.60;43.60
9095;DHT22;4583;49.796;9.902;2023-06-14T21:17:31;21.40;44.00
9095;DHT22;4583;49.796;9.902;2023-06-14T21:27:33;21.30;44.20
9095;DHT22;4583;49.796;9.902;2023-06-14T21:37:35;21.20;44.40
9095;DHT22;4583;49.796;9.902;2023-06-14T21:47:37;21.00;44.90
9095;DHT22;4583;49.796;9.902;2023-06-14T21:57:39;20.90;45.30
9095;DHT22;4583;49.796;9.902;2023-06-14T22:07:41;20.60;46.00
9095;DHT22;4583;49.796;9.902;2023-06-14T22:17:44;20.50;46.50
9095;DHT22;4583;49.796;9.902;2023-06-14T22:27:46;20.20;47.00
9095;DHT22;4583;49.796;9.902;2023-06-14T22:37:49;20.00;47.50
9095;DHT22;4583;49.796;9.902;2023-06-14T22:47:51;19.90;47.80
9095;DHT22;4583;49.796;9.902;2023-06-14T22:57:53;19.80;48.20
9095;DHT22;4583;49.796;9.902;2023-06-14T23:07:55;19.70;48.60
9095;DHT22;4583;49.796;9.902;2023-06-14T23:17:57;19.60;49.20
9095;DHT22;4583;49.796;9.902;2023-06-14T23:28:01;19.40;49.70
9095;DHT22;4583;49.796;9.902;2023-06-14T23:38:04;19.30;50.30
9095;DHT22;4583;49.796;9.902;2023-06-14T23:48:06;19.10;51.30
9095;DHT22;4583;49.796;9.902;2023-06-14T23:58:08;18.90;52.40
